sensor_id;sensor_type;location;lat;lon;timestamp;P1;durP1;ratioP1;P2;durP2;ratioP2
30420;SDS011;17218;54.070;10.012;2023-03-03T00:00:00;24.50;;;12.43;;
30420;SDS011;17218;54.070;10.012;2023-03-03T00:02:28;25.00;;;12.33;;
30420;SDS011;17218;54.070;10.012;2023-03-03T00:04:54;21.00;;;12.43;;
30420;SDS011;17218;54.070;10.012;2023-03-03T00:07:21;19.93;;;11.87;;
30420;SDS011;17218;54.070;10.012;2023-03-03T00:09:47;17.77;;;11.43;;
30420;SDS011;17218;54.070;10.012;2023-03-03T00:12:17;17.63;;;10.57;;
30420;SDS011;17218;54.070;10.012;2023-03-03T00:14:50;13.70;;;10.87;;
30420;SDS011;17218;54.070;10.012;2023-03-03T00:17:19;16.83;;;10.80;;
30420;SDS011;17218;54.070;10.012;2023-03-03T00:19:48;15.70;;;12.37;;
30420;SDS011;17218;54.070;10.012;2023-03-03T00:22:18;19.13;;;11.63;;
30420;SDS011;17218;54.070;10.012;2023-03-03T00:24:52;15.53;;;11.33;;
30420;SDS011;17218;54.070;10.012;2023-03-03T00:27:21;17.83;;;12.00;;
30420;SDS011;17218;54.070;10.012;2023-03-03T00:29:55;21.10;;;11.57;;
30420;SDS011;17218;54.070;10.012;2023-03-03T00:32:24;17.53;;;10.80;;
30420;SDS011;17218;54.070;10.012;2023-03-03T00:34:52;17.17;;;11.17;;
30420;SDS011;17218;54.070;10.012;2023-03-03T00:37:29;27.07;;;11.57;;
30420;SDS011;17218;54.070;10.012;2023-03-03T00:39:58;16.63;;;10.53;;
30420;SDS011;17218;54.070;10.012;2023-03-03T00:42:37;14.60;;;10.13;;
30420;SDS011;17218;54.070;10.012;2023-03-03T00:45:05;19.70;;;11.47;;
30420;SDS011;17218;54.070;10.012;2023-03-03T00:47:47;19.80;;;11.63;;
30420;SDS011;17218;54.070;10.012;2023-03-03T00:53:04;17.47;;;11.23;;
30420;SDS011;17218;54.070;10.012;2023-03-03T00:55:32;17.47;;;10.77;;
30420;SDS011;17218;54.070;10.012;2023-03-03T00:57:59;22.50;;;12.10;;
30420;SDS011;17218;54.070;10.012;2023-03-03T01:00:27;18.97;;;11.47;;
30420;SDS011;17218;54.070;10.012;2023-03-03T01:02:54;17.23;;;11.43;;
30420;SDS011;17218;54.070;10.012;2023-03-03T01:05:20;22.53;;;11.73;;
30420;SDS011;17218;54.070;10.012;2023-03-03T01:07:47;17.00;;;11.37;;
30420;SDS011;17218;54.070;10.012;2023-03-03T01:10:14;18.20;;;11.20;;
30420;SDS011;17218;54.070;10.012;2023-03-03T01:12:40;16.97;;;11.47;;
30420;SDS011;17218;54.070;10.012;2023-03-03T01:15:08;18.30;;;10.90;;
30420;SDS011;17218;54.070;10.012;2023-03-03T01:17:37;16.80;;;11.17;;
30420;SDS011;17218;54.070;10.012;2023-03-03T01:20:05;17.33;;;11.47;;
30420;SDS011;17218;54.070;10.012;2023-03-03T01:22:37;20.97;;;10.60;;
30420;SDS011;17218;54.070;10.012;2023-03-03T01:25:04;17.33;;;10.60;;
30420;SDS011;17218;54.070;10.012;2023-03-03T01:27:31;13.70;;;9.80;;
30420;SDS011;17218;54.070;10.012;2023-03-03T01:29:59;16.23;;;10.83;;
30420;SDS011;17218;54.070;10.012;2023-03-03T01:32:26;18.03;;;10.53;;
30420;SDS011;17218;54.070;10.012;2023-03-03T01:34:54;20.20;;;10.90;;
30420;SDS011;17218;54.070;10.012;2023-03-03T01:37:21;15.50;;;9.67;;
30420;SDS011;17218;54.070;10.012;2023-03-03T01:39:48;18.20;;;10.93;;
30420;SDS011;17218;54.070;10.012;2023-03-03T01:42:15;18.13;;;11.17;;
30420;SDS011;17218;54.070;10.012;2023-03-03T01:44:42;17.73;;;10.77;;
30420;SDS011;17218;54.070;10.012;2023-03-03T01:47:08;13.23;;;10.20;;
30420;SDS011;17218;54.070;10.012;2023-03-03T01:49:38;18.87;;;11.73;;
30420;SDS011;17218;54.070;10.012;2023-03-03T01:52:11;21.97;;;11.40;;
30420;SDS011;17218;54.070;10.012;2023-03-03T01:54:45;18.67;;;10.20;;
30420;SDS011;17218;54.070;10.012;2023-03-03T01:57:17;19.10;;;10.10;;
30420;SDS011;17218;54.070;10.012;2023-03-03T01:59:47;20.90;;;11.17;;
30420;SDS011;17218;54.070;10.012;2023-03-03T02:02:15;19.30;;;11.43;;
30420;SDS011;17218;54.070;10.012;2023-03-03T02:04:43;14.03;;;9.93;;
30420;SDS011;17218;54.070;10.012;2023-03-03T02:07:11;17.10;;;10.77;;
30420;SDS011;17218;54.070;10.012;2023-03-03T02:09:44;19.23;;;11.43;;
30420;SDS011;17218;54.070;10.012;2023-03-03T02:12:17;39.00;;;11.20;;
30420;SDS011;17218;54.070;10.012;2023-03-03T02:14:46;21.47;;;11.13;;
30420;SDS011;17218;54.070;10.012;2023-03-03T02:17:13;19.43;;;10.40;;
30420;SDS011;17218;54.070;10.012;2023-03-03T02:19:42;15.43;;;11.27;;
30420;SDS011;17218;54.070;10.012;2023-03-03T02:22:17;16.93;;;10.43;;
30420;SDS011;17218;54.070;10.012;2023-03-03T02:24:49;15.73;;;11.17;;
30420;SDS011;17218;54.070;10.012;2023-03-03T02:27:19;13.47;;;9.40;;
30420;SDS011;17218;54.070;10.012;2023-03-03T02:29:46;13.70;;;10.50;;
30420;SDS011;17218;54.070;10.012;2023-03-03T02:32:12;16.23;;;10.53;;
30420;SDS011;17218;54.070;10.012;2023-03-03T02:34:45;13.53;;;9.50;;
30420;SDS011;17218;54.070;10.012;2023-03-03T02:37:12;13.80;;;9.83;;
30420;SDS011;17218;54.070;10.012;2023-03-03T02:39:39;14.30;;;10.77;;
30420;SDS011;17218;54.070;10.012;2023-03-03T02:42:07;15.53;;;11.30;;
30420;SDS011;17218;54.070;10.012;2023-03-03T02:44:39;14.23;;;10.53;;
30420;SDS011;17218;54.070;10.012;2023-03-03T02:47:06;14.73;;;10.57;;
30420;SDS011;17218;54.070;10.012;2023-03-03T02:49:33;14.90;;;10.53;;
30420;SDS011;17218;54.070;10.012;2023-03-03T02:52:01;14.73;;;10.33;;
30420;SDS011;17218;54.070;10.012;2023-03-03T02:54:29;14.57;;;10.73;;
30420;SDS011;17218;54.070;10.012;2023-03-03T02:56:57;15.10;;;10.47;;
30420;SDS011;17218;54.070;10.012;2023-03-03T02:59:24;14.63;;;10.27;;
30420;SDS011;17218;54.070;10.012;2023-03-03T03:01:52;18.57;;;11.40;;
30420;SDS011;17218;54.070;10.012;2023-03-03T03:04:20;15.67;;;10.73;;
30420;SDS011;17218;54.070;10.012;2023-03-03T03:06:48;16.87;;;10.60;;
30420;SDS011;17218;54.070;10.012;2023-03-03T03:09:15;14.87;;;10.30;;
30420;SDS011;17218;54.070;10.012;2023-03-03T03:11:43;17.73;;;11.20;;
30420;SDS011;17218;54.070;10.012;2023-03-03T03:14:10;14.00;;;9.87;;
30420;SDS011;17218;54.070;10.012;2023-03-03T03:16:38;13.67;;;9.87;;
30420;SDS011;17218;54.070;10.012;2023-03-03T03:19:06;19.97;;;10.50;;
30420;SDS011;17218;54.070;10.012;2023-03-03T03:21:33;14.13;;;9.83;;
30420;SDS011;17218;54.070;10.012;2023-03-03T03:24:00;16.67;;;9.97;;
30420;SDS011;17218;54.070;10.012;2023-03-03T03:26:26;19.90;;;10.57;;
30420;SDS011;17218;54.070;10.012;2023-03-03T03:28:53;17.97;;;10.87;;
30420;SDS011;17218;54.070;10.012;2023-03-03T03:31:20;16.93;;;10.97;;
30420;SDS011;17218;54.070;10.012;2023-03-03T03:33:47;14.30;;;10.07;;
30420;SDS011;17218;54.070;10.012;2023-03-03T03:36:15;16.13;;;10.97;;
30420;SDS011;17218;54.070;10.012;2023-03-03T03:38:41;15.67;;;10.37;;
30420;SDS011;17218;54.070;10.012;2023-03-03T03:41:08;14.50;;;9.93;;
30420;SDS011;17218;54.070;10.012;2023-03-03T03:43:36;15.73;;;9.93;;
30420;SDS011;17218;54.070;10.012;2023-03-03T03:46:03;12.80;;;9.23;;
30420;SDS011;17218;54.070;10.012;2023-03-03T03:48:29;18.50;;;9.43;;
30420;SDS011;17218;54.070;10.012;2023-03-03T03:50:56;13.53;;;9.40;;
30420;SDS011;17218;54.070;10.012;2023-03-03T03:53:24;13.53;;;9.50;;
30420;SDS011;17218;54.070;10.012;2023-03-03T03:55:50;14.03;;;9.37;;
30420;SDS011;17218;54.070;10.012;2023-03-03T03:58:17;14.17;;;10.20;;
30420;SDS011;17218;54.070;10.012;2023-03-03T04:00:44;13.47;;;9.40;;
30420;SDS011;17218;54.070;10.012;2023-03-03T04:03:11;13.77;;;9.27;;
30420;SDS011;17218;54.070;10.012;2023-03-03T04:05:39;13.80;;;10.00;;
30420;SDS011;17218;54.070;10.012;2023-03-03T04:08:05;14.50;;;10.10;;
30420;SDS011;17218;54.070;10.012;2023-03-03T04:10:33;14.43;;;10.27;;
30420;SDS011;17218;54.070;10.012;2023-03-03T04:13:00;15.63;;;10.07;;
30420;SDS011;17218;54.070;10.012;2023-03-03T04:15:26;16.37;;;10.63;;
30420;SDS011;17218;54.070;10.012;2023-03-03T04:17:53;16.17;;;10.20;;
30420;SDS011;17218;54.070;10.012;2023-03-03T04:20:19;15.33;;;9.33;;
30420;SDS011;17218;54.070;10.012;2023-03-03T04:22:46;13.67;;;9.97;;
30420;SDS011;17218;54.070;10.012;2023-03-03T04:25:13;14.63;;;10.53;;
30420;SDS011;17218;54.070;10.012;2023-03-03T04:27:42;16.67;;;10.10;;
30420;SDS011;17218;54.070;10.012;2023-03-03T04:30:09;16.00;;;10.50;;
30420;SDS011;17218;54.070;10.012;2023-03-03T04:32:37;15.63;;;10.63;;
30420;SDS011;17218;54.070;10.012;2023-03-03T04:35:04;13.87;;;9.73;;
30420;SDS011;17218;54.070;10.012;2023-03-03T04:44:15;15.97;;;10.10;;
30420;SDS011;17218;54.070;10.012;2023-03-03T04:46:42;15.60;;;9.17;;
30420;SDS011;17218;54.070;10.012;2023-03-03T04:49:08;16.23;;;9.40;;
30420;SDS011;17218;54.070;10.012;2023-03-03T04:51:35;15.33;;;9.80;;
30420;SDS011;17218;54.070;10.012;2023-03-03T04:54:01;14.63;;;9.37;;
30420;SDS011;17218;54.070;10.012;2023-03-03T04:56:28;13.63;;;9.17;;
30420;SDS011;17218;54.070;10.012;2023-03-03T04:58:55;19.63;;;9.03;;
30420;SDS011;17218;54.070;10.012;2023-03-03T05:01:23;13.83;;;9.57;;
30420;SDS011;17218;54.070;10.012;2023-03-03T05:03:49;15.50;;;8.33;;
30420;SDS011;17218;54.070;10.012;2023-03-03T05:06:16;16.83;;;9.60;;
30420;SDS011;17218;54.070;10.012;2023-03-03T05:08:43;11.07;;;7.77;;
30420;SDS011;17218;54.070;10.012;2023-03-03T05:11:09;14.40;;;9.07;;
30420;SDS011;17218;54.070;10.012;2023-03-03T05:13:36;13.37;;;9.43;;
30420;SDS011;17218;54.070;10.012;2023-03-03T05:16:03;12.23;;;8.17;;
30420;SDS011;17218;54.070;10.012;2023-03-03T05:18:31;11.77;;;8.63;;
30420;SDS011;17218;54.070;10.012;2023-03-03T05:20:57;12.63;;;8.87;;
30420;SDS011;17218;54.070;10.012;2023-03-03T05:23:27;12.13;;;9.10;;
30420;SDS011;17218;54.070;10.012;2023-03-03T05:25:53;14.63;;;9.30;;
30420;SDS011;17218;54.070;10.012;2023-03-03T05:28:20;13.63;;;9.07;;
30420;SDS011;17218;54.070;10.012;2023-03-03T05:30:46;12.50;;;8.90;;
30420;SDS011;17218;54.070;10.012;2023-03-03T05:33:14;13.20;;;9.30;;
30420;SDS011;17218;54.070;10.012;2023-03-03T05:35:43;13.90;;;10.20;;
30420;SDS011;17218;54.070;10.012;2023-03-03T05:38:10;12.83;;;9.17;;
30420;SDS011;17218;54.070;10.012;2023-03-03T05:40:37;12.60;;;8.67;;
30420;SDS011;17218;54.070;10.012;2023-03-03T05:43:03;13.17;;;8.77;;
30420;SDS011;17218;54.070;10.012;2023-03-03T05:45:31;15.07;;;9.93;;
30420;SDS011;17218;54.070;10.012;2023-03-03T05:47:58;16.17;;;10.57;;
30420;SDS011;17218;54.070;10.012;2023-03-03T05:50:24;13.03;;;9.87;;
30420;SDS011;17218;54.070;10.012;2023-03-03T05:52:52;15.50;;;9.60;;
30420;SDS011;17218;54.070;10.012;2023-03-03T05:55:19;18.70;;;10.73;;
30420;SDS011;17218;54.070;10.012;2023-03-03T05:57:45;14.87;;;10.60;;
30420;SDS011;17218;54.070;10.012;2023-03-03T06:00:12;15.13;;;9.83;;
30420;SDS011;17218;54.070;10.012;2023-03-03T06:02:40;16.77;;;10.60;;
30420;SDS011;17218;54.070;10.012;2023-03-03T06:05:07;17.77;;;10.97;;
30420;SDS011;17218;54.070;10.012;2023-03-03T06:07:35;18.13;;;10.27;;
30420;SDS011;17218;54.070;10.012;2023-03-03T06:10:04;25.60;;;11.27;;
30420;SDS011;17218;54.070;10.012;2023-03-03T06:12:31;17.90;;;9.50;;
30420;SDS011;17218;54.070;10.012;2023-03-03T06:14:58;22.20;;;10.77;;
30420;SDS011;17218;54.070;10.012;2023-03-03T06:17:24;24.87;;;9.97;;
30420;SDS011;17218;54.070;10.012;2023-03-03T06:19:50;17.70;;;11.37;;
30420;SDS011;17218;54.070;10.012;2023-03-03T06:22:17;19.07;;;10.17;;
30420;SDS011;17218;54.070;10.012;2023-03-03T06:24:43;24.53;;;11.63;;
30420;SDS011;17218;54.070;10.012;2023-03-03T06:27:11;21.43;;;11.60;;
30420;SDS011;17218;54.070;10.012;2023-03-03T06:29:38;20.77;;;11.90;;
30420;SDS011;17218;54.070;10.012;2023-03-03T06:32:04;22.93;;;11.70;;
30420;SDS011;17218;54.070;10.012;2023-03-03T06:34:31;24.77;;;12.67;;
30420;SDS011;17218;54.070;10.012;2023-03-03T06:36:57;20.10;;;12.07;;
30420;SDS011;17218;54.070;10.012;2023-03-03T06:39:24;25.30;;;12.73;;
30420;SDS011;17218;54.070;10.012;2023-03-03T06:41:50;20.47;;;11.57;;
30420;SDS011;17218;54.070;10.012;2023-03-03T06:44:18;22.00;;;11.93;;
30420;SDS011;17218;54.070;10.012;2023-03-03T06:46:44;19.00;;;12.60;;
30420;SDS011;17218;54.070;10.012;2023-03-03T06:49:11;23.73;;;11.10;;
30420;SDS011;17218;54.070;10.012;2023-03-03T06:51:38;21.60;;;11.50;;
30420;SDS011;17218;54.070;10.012;2023-03-03T06:54:08;19.80;;;11.70;;
30420;SDS011;17218;54.070;10.012;2023-03-03T06:56:37;19.93;;;11.87;;
30420;SDS011;17218;54.070;10.012;2023-03-03T06:59:05;20.83;;;11.53;;
30420;SDS011;17218;54.070;10.012;2023-03-03T07:01:38;23.07;;;12.60;;
30420;SDS011;17218;54.070;10.012;2023-03-03T07:04:16;20.13;;;12.57;;
30420;SDS011;17218;54.070;10.012;2023-03-03T07:06:52;22.57;;;12.00;;
30420;SDS011;17218;54.070;10.012;2023-03-03T07:09:20;28.40;;;12.87;;
30420;SDS011;17218;54.070;10.012;2023-03-03T07:11:49;27.30;;;13.93;;
30420;SDS011;17218;54.070;10.012;2023-03-03T07:14:17;24.77;;;12.80;;
30420;SDS011;17218;54.070;10.012;2023-03-03T07:16:46;23.00;;;12.77;;
30420;SDS011;17218;54.070;10.012;2023-03-03T07:19:19;20.17;;;12.60;;
30420;SDS011;17218;54.070;10.012;2023-03-03T07:21:49;24.90;;;12.30;;
30420;SDS011;17218;54.070;10.012;2023-03-03T07:24:26;21.03;;;11.50;;
30420;SDS011;17218;54.070;10.012;2023-03-03T07:26:55;21.03;;;12.67;;
30420;SDS011;17218;54.070;10.012;2023-03-03T07:29:26;22.93;;;12.17;;
30420;SDS011;17218;54.070;10.012;2023-03-03T07:31:56;18.00;;;11.67;;
30420;SDS011;17218;54.070;10.012;2023-03-03T07:34:23;24.10;;;11.47;;
30420;SDS011;17218;54.070;10.012;2023-03-03T07:36:56;17.67;;;11.47;;
30420;SDS011;17218;54.070;10.012;2023-03-03T07:39:27;16.60;;;10.37;;
30420;SDS011;17218;54.070;10.012;2023-03-03T07:42:01;17.47;;;11.43;;
30420;SDS011;17218;54.070;10.012;2023-03-03T07:44:40;19.07;;;10.10;;
30420;SDS011;17218;54.070;10.012;2023-03-03T07:47:14;18.83;;;10.30;;
30420;SDS011;17218;54.070;10.012;2023-03-03T07:49:48;19.67;;;10.50;;
30420;SDS011;17218;54.070;10.012;2023-03-03T07:52:26;20.47;;;11.23;;
30420;SDS011;17218;54.070;10.012;2023-03-03T07:54:56;14.53;;;9.93;;
30420;SDS011;17218;54.070;10.012;2023-03-03T07:57:26;22.97;;;10.50;;
30420;SDS011;17218;54.070;10.012;2023-03-03T08:00:03;14.00;;;9.53;;
30420;SDS011;17218;54.070;10.012;2023-03-03T08:02:51;16.40;;;10.70;;
30420;SDS011;17218;54.070;10.012;2023-03-03T08:05:26;18.47;;;9.87;;
30420;SDS011;17218;54.070;10.012;2023-03-03T08:07:57;22.20;;;10.40;;
30420;SDS011;17218;54.070;10.012;2023-03-03T08:10:38;20.60;;;10.23;;
30420;SDS011;17218;54.070;10.012;2023-03-03T08:13:14;15.90;;;10.33;;
30420;SDS011;17218;54.070;10.012;2023-03-03T08:15:43;21.90;;;10.03;;
30420;SDS011;17218;54.070;10.012;2023-03-03T08:18:17;21.63;;;10.90;;
30420;SDS011;17218;54.070;10.012;2023-03-03T08:20:49;32.87;;;10.37;;
30420;SDS011;17218;54.070;10.012;2023-03-03T08:23:18;25.67;;;10.07;;
30420;SDS011;17218;54.070;10.012;2023-03-03T08:25:45;17.77;;;9.00;;
30420;SDS011;17218;54.070;10.012;2023-03-03T08:28:13;21.20;;;10.60;;
30420;SDS011;17218;54.070;10.012;2023-03-03T08:30:41;16.90;;;9.50;;
30420;SDS011;17218;54.070;10.012;2023-03-03T08:33:08;14.27;;;9.80;;
30420;SDS011;17218;54.070;10.012;2023-03-03T08:35:36;20.57;;;10.83;;
30420;SDS011;17218;54.070;10.012;2023-03-03T08:38:03;18.80;;;9.23;;
30420;SDS011;17218;54.070;10.012;2023-03-03T08:40:30;15.87;;;9.07;;
30420;SDS011;17218;54.070;10.012;2023-03-03T08:42:57;15.67;;;9.00;;
30420;SDS011;17218;54.070;10.012;2023-03-03T08:45:24;13.63;;;8.83;;
30420;SDS011;17218;54.070;10.012;2023-03-03T08:47:51;17.47;;;9.37;;
30420;SDS011;17218;54.070;10.012;2023-03-03T08:50:18;17.90;;;7.97;;
30420;SDS011;17218;54.070;10.012;2023-03-03T08:52:47;24.97;;;8.87;;
30420;SDS011;17218;54.070;10.012;2023-03-03T08:55:13;14.97;;;7.60;;
30420;SDS011;17218;54.070;10.012;2023-03-03T08:57:40;11.00;;;7.63;;
30420;SDS011;17218;54.070;10.012;2023-03-03T09:00:07;15.70;;;7.33;;
30420;SDS011;17218;54.070;10.012;2023-03-03T09:02:36;10.40;;;7.23;;
30420;SDS011;17218;54.070;10.012;2023-03-03T09:05:03;18.17;;;7.43;;
30420;SDS011;17218;54.070;10.012;2023-03-03T09:07:30;13.47;;;6.50;;
30420;SDS011;17218;54.070;10.012;2023-03-03T09:09:58;9.77;;;6.70;;
30420;SDS011;17218;54.070;10.012;2023-03-03T09:12:28;10.03;;;6.40;;
30420;SDS011;17218;54.070;10.012;2023-03-03T09:14:57;13.47;;;6.80;;
30420;SDS011;17218;54.070;10.012;2023-03-03T09:17:27;11.83;;;6.53;;
30420;SDS011;17218;54.070;10.012;2023-03-03T09:19:58;13.37;;;6.53;;
30420;SDS011;17218;54.070;10.012;2023-03-03T09:22:27;14.40;;;6.70;;
30420;SDS011;17218;54.070;10.012;2023-03-03T09:24:55;12.60;;;6.90;;
30420;SDS011;17218;54.070;10.012;2023-03-03T09:27:26;10.93;;;6.10;;
30420;SDS011;17218;54.070;10.012;2023-03-03T09:29:54;12.40;;;6.43;;
30420;SDS011;17218;54.070;10.012;2023-03-03T09:32:33;13.03;;;6.27;;
30420;SDS011;17218;54.070;10.012;2023-03-03T09:37:59;14.00;;;7.00;;
30420;SDS011;17218;54.070;10.012;2023-03-03T09:40:36;10.63;;;7.13;;
30420;SDS011;17218;54.070;10.012;2023-03-03T09:43:19;12.13;;;7.90;;
30420;SDS011;17218;54.070;10.012;2023-03-03T09:45:56;10.57;;;7.43;;
30420;SDS011;17218;54.070;10.012;2023-03-03T09:48:35;12.70;;;7.60;;
30420;SDS011;17218;54.070;10.012;2023-03-03T09:51:28;10.60;;;7.50;;
30420;SDS011;17218;54.070;10.012;2023-03-03T09:54:10;12.03;;;7.10;;
30420;SDS011;17218;54.070;10.012;2023-03-03T09:56:46;13.17;;;7.70;;
30420;SDS011;17218;54.070;10.012;2023-03-03T09:59:25;12.07;;;7.93;;
30420;SDS011;17218;54.070;10.012;2023-03-03T10:02:00;8.97;;;7.00;;
30420;SDS011;17218;54.070;10.012;2023-03-03T10:04:53;9.77;;;7.40;;
30420;SDS011;17218;54.070;10.012;2023-03-03T10:07:35;13.43;;;7.80;;
30420;SDS011;17218;54.070;10.012;2023-03-03T10:10:19;11.50;;;7.30;;
30420;SDS011;17218;54.070;10.012;2023-03-03T10:12:58;14.10;;;7.60;;
30420;SDS011;17218;54.070;10.012;2023-03-03T10:15:38;8.87;;;6.67;;
30420;SDS011;17218;54.070;10.012;2023-03-03T10:18:19;10.53;;;7.60;;
30420;SDS011;17218;54.070;10.012;2023-03-03T10:20:56;11.37;;;7.03;;
30420;SDS011;17218;54.070;10.012;2023-03-03T10:23:49;10.80;;;7.33;;
30420;SDS011;17218;54.070;10.012;2023-03-03T10:26:21;9.87;;;7.20;;
30420;SDS011;17218;54.070;10.012;2023-03-03T10:29:07;9.60;;;7.17;;
30420;SDS011;17218;54.070;10.012;2023-03-03T10:31:44;10.83;;;7.67;;
30420;SDS011;17218;54.070;10.012;2023-03-03T10:34:24;10.83;;;7.40;;
30420;SDS011;17218;54.070;10.012;2023-03-03T10:37:09;8.37;;;6.87;;
30420;SDS011;17218;54.070;10.012;2023-03-03T10:39:48;8.73;;;7.13;;
30420;SDS011;17218;54.070;10.012;2023-03-03T10:42:26;7.73;;;6.50;;
30420;SDS011;17218;54.070;10.012;2023-03-03T10:51:04;9.03;;;7.07;;
30420;SDS011;17218;54.070;10.012;2023-03-03T10:53:40;11.10;;;7.03;;
30420;SDS011;17218;54.070;10.012;2023-03-03T10:56:16;9.87;;;7.73;;
30420;SDS011;17218;54.070;10.012;2023-03-03T10:59:00;9.13;;;6.97;;
30420;SDS011;17218;54.070;10.012;2023-03-03T11:01:38;7.80;;;6.47;;
30420;SDS011;17218;54.070;10.012;2023-03-03T11:04:27;9.80;;;7.50;;
30420;SDS011;17218;54.070;10.012;2023-03-03T11:07:05;9.50;;;7.57;;
30420;SDS011;17218;54.070;10.012;2023-03-03T11:09:39;9.97;;;8.17;;
30420;SDS011;17218;54.070;10.012;2023-03-03T11:12:19;10.27;;;7.80;;
30420;SDS011;17218;54.070;10.012;2023-03-03T11:14:54;9.93;;;7.83;;
30420;SDS011;17218;54.070;10.012;2023-03-03T11:17:39;9.17;;;7.00;;
30420;SDS011;17218;54.070;10.012;2023-03-03T11:20:19;10.63;;;6.57;;
30420;SDS011;17218;54.070;10.012;2023-03-03T11:22:57;9.40;;;7.10;;
30420;SDS011;17218;54.070;10.012;2023-03-03T11:25:29;8.93;;;6.83;;
30420;SDS011;17218;54.070;10.012;2023-03-03T11:28:08;9.63;;;7.30;;
30420;SDS011;17218;54.070;10.012;2023-03-03T11:30:50;9.07;;;6.57;;
30420;SDS011;17218;54.070;10.012;2023-03-03T11:33:29;10.27;;;6.60;;
30420;SDS011;17218;54.070;10.012;2023-03-03T11:36:06;11.47;;;6.73;;
30420;SDS011;17218;54.070;10.012;2023-03-03T11:38:43;12.07;;;6.40;;
30420;SDS011;17218;54.070;10.012;2023-03-03T11:41:16;8.93;;;6.07;;
30420;SDS011;17218;54.070;10.012;2023-03-03T11:43:51;8.77;;;6.50;;
30420;SDS011;17218;54.070;10.012;2023-03-03T11:46:24;11.57;;;7.23;;
30420;SDS011;17218;54.070;10.012;2023-03-03T11:48:57;10.85;;;6.88;;
30420;SDS011;17218;54.070;10.012;2023-03-03T11:51:33;10.20;;;6.33;;
30420;SDS011;17218;54.070;10.012;2023-03-03T11:54:08;10.07;;;6.45;;
30420;SDS011;17218;54.070;10.012;2023-03-03T11:56:43;8.80;;;5.97;;
30420;SDS011;17218;54.070;10.012;2023-03-03T12:02:27;7.40;;;5.10;;
30420;SDS011;17218;54.070;10.012;2023-03-03T12:05:14;8.47;;;5.27;;
30420;SDS011;17218;54.070;10.012;2023-03-03T12:07:55;9.57;;;4.95;;
30420;SDS011;17218;54.070;10.012;2023-03-03T12:10:29;9.07;;;5.17;;
30420;SDS011;17218;54.070;10.012;2023-03-03T12:13:02;7.17;;;4.33;;
30420;SDS011;17218;54.070;10.012;2023-03-03T12:15:32;8.17;;;4.00;;
30420;SDS011;17218;54.070;10.012;2023-03-03T12:18:12;6.97;;;4.68;;
30420;SDS011;17218;54.070;10.012;2023-03-03T12:20:49;6.47;;;3.70;;
30420;SDS011;17218;54.070;10.012;2023-03-03T12:23:35;8.40;;;4.40;;
30420;SDS011;17218;54.070;10.012;2023-03-03T12:26:12;8.03;;;4.70;;
30420;SDS011;17218;54.070;10.012;2023-03-03T12:28:46;8.33;;;4.97;;
30420;SDS011;17218;54.070;10.012;2023-03-03T12:31:23;7.70;;;4.95;;
30420;SDS011;17218;54.070;10.012;2023-03-03T12:34:01;7.13;;;4.27;;
30420;SDS011;17218;54.070;10.012;2023-03-03T12:36:42;6.93;;;3.90;;
30420;SDS011;17218;54.070;10.012;2023-03-03T12:39:32;7.60;;;3.57;;
30420;SDS011;17218;54.070;10.012;2023-03-03T12:42:13;5.03;;;3.33;;
30420;SDS011;17218;54.070;10.012;2023-03-03T12:44:48;5.67;;;3.80;;
30420;SDS011;17218;54.070;10.012;2023-03-03T12:47:24;6.60;;;3.50;;
30420;SDS011;17218;54.070;10.012;2023-03-03T12:49:58;4.27;;;3.23;;
30420;SDS011;17218;54.070;10.012;2023-03-03T12:52:42;5.93;;;3.33;;
30420;SDS011;17218;54.070;10.012;2023-03-03T12:55:21;6.97;;;4.20;;
30420;SDS011;17218;54.070;10.012;2023-03-03T12:57:57;3.37;;;3.07;;
30420;SDS011;17218;54.070;10.012;2023-03-03T13:00:37;5.83;;;3.03;;
30420;SDS011;17218;54.070;10.012;2023-03-03T13:03:16;6.90;;;3.40;;
30420;SDS011;17218;54.070;10.012;2023-03-03T13:05:54;4.67;;;2.73;;
30420;SDS011;17218;54.070;10.012;2023-03-03T13:08:30;5.23;;;2.40;;
30420;SDS011;17218;54.070;10.012;2023-03-03T13:11:17;5.87;;;1.83;;
30420;SDS011;17218;54.070;10.012;2023-03-03T13:14:02;5.40;;;1.60;;
30420;SDS011;17218;54.070;10.012;2023-03-03T13:16:40;5.18;;;1.98;;
30420;SDS011;17218;54.070;10.012;2023-03-03T13:19:13;7.25;;;1.67;;
30420;SDS011;17218;54.070;10.012;2023-03-03T13:21:46;7.93;;;1.67;;
30420;SDS011;17218;54.070;10.012;2023-03-03T13:24:17;5.45;;;1.52;;
30420;SDS011;17218;54.070;10.012;2023-03-03T13:26:51;6.95;;;1.67;;
30420;SDS011;17218;54.070;10.012;2023-03-03T13:29:22;6.00;;;1.63;;
30420;SDS011;17218;54.070;10.012;2023-03-03T13:31:53;8.82;;;2.42;;
30420;SDS011;17218;54.070;10.012;2023-03-03T13:34:24;7.30;;;1.80;;
30420;SDS011;17218;54.070;10.012;2023-03-03T13:37:00;9.73;;;2.00;;
30420;SDS011;17218;54.070;10.012;2023-03-03T13:39:31;11.07;;;1.95;;
30420;SDS011;17218;54.070;10.012;2023-03-03T13:42:05;7.97;;;1.67;;
30420;SDS011;17218;54.070;10.012;2023-03-03T13:44:41;7.88;;;1.98;;
30420;SDS011;17218;54.070;10.012;2023-03-03T13:47:12;9.25;;;2.25;;
30420;SDS011;17218;54.070;10.012;2023-03-03T13:49:51;8.80;;;2.50;;
30420;SDS011;17218;54.070;10.012;2023-03-03T13:52:26;8.70;;;1.90;;
30420;SDS011;17218;54.070;10.012;2023-03-03T13:55:01;4.40;;;1.25;;
30420;SDS011;17218;54.070;10.012;2023-03-03T13:57:38;5.93;;;1.80;;
30420;SDS011;17218;54.070;10.012;2023-03-03T14:00:32;4.43;;;1.90;;
30420;SDS011;17218;54.070;10.012;2023-03-03T14:03:12;7.20;;;2.85;;
30420;SDS011;17218;54.070;10.012;2023-03-03T14:05:48;8.73;;;3.63;;
30420;SDS011;17218;54.070;10.012;2023-03-03T14:08:19;13.43;;;4.35;;
30420;SDS011;17218;54.070;10.012;2023-03-03T14:11:06;9.98;;;3.63;;
30420;SDS011;17218;54.070;10.012;2023-03-03T14:13:38;9.60;;;2.70;;
30420;SDS011;17218;54.070;10.012;2023-03-03T14:16:16;5.27;;;2.23;;
30420;SDS011;17218;54.070;10.012;2023-03-03T14:18:50;6.63;;;2.43;;
30420;SDS011;17218;54.070;10.012;2023-03-03T14:21:23;5.47;;;1.77;;
30420;SDS011;17218;54.070;10.012;2023-03-03T14:23:58;9.67;;;2.40;;
30420;SDS011;17218;54.070;10.012;2023-03-03T14:26:30;9.43;;;2.30;;
30420;SDS011;17218;54.070;10.012;2023-03-03T14:29:29;8.03;;;1.70;;
30420;SDS011;17218;54.070;10.012;2023-03-03T14:31:57;8.82;;;2.15;;
30420;SDS011;17218;54.070;10.012;2023-03-03T14:34:29;12.90;;;2.30;;
30420;SDS011;17218;54.070;10.012;2023-03-03T14:37:18;12.20;;;2.37;;
30420;SDS011;17218;54.070;10.012;2023-03-03T14:39:48;9.73;;;2.60;;
30420;SDS011;17218;54.070;10.012;2023-03-03T14:42:32;13.77;;;2.87;;
30420;SDS011;17218;54.070;10.012;2023-03-03T14:45:14;10.07;;;2.47;;
30420;SDS011;17218;54.070;10.012;2023-03-03T14:47:46;8.20;;;2.00;;
30420;SDS011;17218;54.070;10.012;2023-03-03T14:53:06;15.47;;;3.43;;
30420;SDS011;17218;54.070;10.012;2023-03-03T14:55:36;18.88;;;4.05;;
30420;SDS011;17218;54.070;10.012;2023-03-03T14:58:07;12.33;;;3.13;;
30420;SDS011;17218;54.070;10.012;2023-03-03T15:00:50;14.98;;;3.30;;
30420;SDS011;17218;54.070;10.012;2023-03-03T15:03:34;14.75;;;3.00;;
30420;SDS011;17218;54.070;10.012;2023-03-03T15:06:07;18.30;;;3.65;;
30420;SDS011;17218;54.070;10.012;2023-03-03T15:08:36;12.70;;;3.30;;